Time;durP1;ratioP1;P1;durP2;ratioP2;P2;SDS_P1;SDS_P2;PMS_P1;PMS_P2;Temp;Humidity;BMP_temperature;BMP_pressure;BME280_temperature;BME280_humidity;BME280_pressure;Samples;Min_cycle;Max_cycle;Signal;HPM_P1;HPM_P2
2021/08/21 00:01:10;;;;;;;3.80;2.47;;;;;;;;;;5094290;28;20027;-73
2021/08/21 00:03:38;;;;;;;2.78;2.13;;;;;;;;;;5093963;28;20020;-74
2021/08/21 00:06:04;;;;;;;2.75;2.03;;;;;;;;;;5093904;28;20426;-72
2021/08/21 00:08:30;;;;;;;4.47;2.30;;;;;;;;;;5093903;28;20016;-73
2021/08/21 00:10:56;;;;;;;6.50;2.83;;;;;;;;;;5093852;28;20020;-74
2021/08/21 00:13:22;;;;;;;4.70;2.65;;;;;;;;;;5093812;28;20027;-73
2021/08/21 00:15:48;;;;;;;4.20;2.58;;;;;;;;;;5093687;28;20034;-73
2021/08/21 00:18:15;;;;;;;4.35;2.38;;;;;;;;;;5093512;28;20108;-73
2021/08/21 00:20:41;;;;;;;3.20;2.10;;;;;;;;;;5075555;28;20528;-73
2021/08/21 00:23:07;;;;;;;4.72;2.70;;;;;;;;;;5093662;28;20024;-73
2021/08/21 00:25:33;;;;;;;3.83;2.47;;;;;;;;;;5093540;28;20032;-73
2021/08/21 00:27:59;;;;;;;3.42;2.30;;;;;;;;;;5093594;28;20066;-73
2021/08/21 00:30:25;;;;;;;4.38;2.30;;;;;;;;;;5093576;28;20458;-73
2021/08/21 00:32:51;;;;;;;2.10;1.90;;;;;;;;;;5093549;28;20099;-73
2021/08/21 00:35:18;;;;;;;3.75;2.30;;;;;;;;;;5093547;28;20154;-73
2021/08/21 00:37:44;;;;;;;3.75;2.15;;;;;;;;;;5093538;28;20029;-73
2021/08/21 00:40:11;;;;;;;3.92;2.13;;;;;;;;;;5093529;28;20059;-73
2021/08/21 00:42:37;;;;;;;4.55;2.25;;;;;;;;;;5093707;28;20099;-73
2021/08/21 00:45:04;;;;;;;3.45;2.17;;;;;;;;;;5075176;28;20475;-73
2021/08/21 00:47:30;;;;;;;3.28;2.22;;;;;;;;;;5093373;28;20020;-73
2021/08/21 00:49:57;;;;;;;3.88;2.45;;;;;;;;;;5093359;28;20028;-73
2021/08/21 00:52:24;;;;;;;4.50;2.60;;;;;;;;;;5099967;28;20028;-73
2021/08/21 00:54:50;;;;;;;4.60;2.95;;;;;;;;;;5100322;28;20042;-73
2021/08/21 00:57:18;;;;;;;3.30;2.35;;;;;;;;;;5081804;28;20536;-73
2021/08/21 00:59:45;;;;;;;3.03;2.35;;;;;;;;;;5081855;28;20036;-73
2021/08/21 01:02:12;;;;;;;4.55;2.38;;;;;;;;;;5100001;28;20031;-73
2021/08/21 01:04:38;;;;;;;3.33;2.00;;;;;;;;;;5100174;28;20027;-73
2021/08/21 01:07:08;;;;;;;3.38;2.55;;;;;;;;;;5105819;28;20024;-74
2021/08/21 01:09:39;;;;;;;2.97;2.27;;;;;;;;;;5110583;28;20032;-75
2021/08/21 01:12:12;;;;;;;4.03;2.47;;;;;;;;;;5110074;28;20476;-74
2021/08/21 01:14:39;;;;;;;3.25;2.38;;;;;;;;;;5100460;28;20624;-73
2021/08/21 01:17:05;;;;;;;3.78;2.40;;;;;;;;;;5081433;28;20499;-73
2021/08/21 01:19:35;;;;;;;3.42;2.33;;;;;;;;;;5099766;28;20135;-72
2021/08/21 01:22:01;;;;;;;3.28;2.28;;;;;;;;;;5099808;28;20074;-73
2021/08/21 01:24:27;;;;;;;3.90;2.20;;;;;;;;;;5081534;28;20047;-73
2021/08/21 01:26:57;;;;;;;4.13;2.25;;;;;;;;;;5099743;28;20032;-73
2021/08/21 01:29:23;;;;;;;4.53;2.55;;;;;;;;;;5100313;28;20024;-73
2021/08/21 01:31:50;;;;;;;4.72;1.95;;;;;;;;;;5100019;28;20028;-73
2021/08/21 01:34:16;;;;;;;3.72;2.40;;;;;;;;;;5099684;28;20020;-73
2021/08/21 01:36:42;;;;;;;4.82;2.90;;;;;;;;;;5099679;28;20028;-73
2021/08/21 01:39:08;;;;;;;3.70;2.10;;;;;;;;;;5099699;28;20028;-73
2021/08/21 01:41:34;;;;;;;4.03;2.38;;;;;;;;;;5099940;28;20470;-73
2021/08/21 01:44:00;;;;;;;2.80;2.30;;;;;;;;;;5099569;28;20403;-72
2021/08/21 01:46:26;;;;;;;3.40;2.20;;;;;;;;;;5099608;28;20070;-73
2021/08/21 01:48:52;;;;;;;7.45;2.30;;;;;;;;;;5099546;28;20069;-73
2021/08/21 01:51:18;;;;;;;3.97;2.25;;;;;;;;;;5099538;28;20122;-73
2021/08/21 01:53:44;;;;;;;4.60;2.30;;;;;;;;;;5081308;28;20035;-73
2021/08/21 01:56:10;;;;;;;5.30;2.35;;;;;;;;;;5099506;28;20514;-73
2021/08/21 01:58:37;;;;;;;3.70;2.33;;;;;;;;;;5081283;28;20453;-73
2021/08/21 02:01:04;;;;;;;4.57;2.33;;;;;;;;;;5099430;28;20032;-73
2021/08/21 02:03:31;;;;;;;3.10;2.10;;;;;;;;;;5095713;28;20487;-73
2021/08/21 02:05:57;;;;;;;4.72;2.05;;;;;;;;;;5096449;28;20035;-73
2021/08/21 02:08:23;;;;;;;4.10;2.15;;;;;;;;;;5096191;28;20035;-73
2021/08/21 02:10:49;;;;;;;3.90;2.38;;;;;;;;;;5096124;28;20080;-73
2021/08/21 02:13:15;;;;;;;3.63;2.20;;;;;;;;;;5077955;28;20080;-73
2021/08/21 02:15:41;;;;;;;4.28;2.72;;;;;;;;;;5096542;28;20027;-73
2021/08/21 02:18:07;;;;;;;5.78;2.53;;;;;;;;;;5095818;28;20074;-73
2021/08/21 02:20:33;;;;;;;3.53;2.10;;;;;;;;;;5095944;28;20060;-73
2021/08/21 02:22:59;;;;;;;4.30;2.10;;;;;;;;;;5096165;28;20073;-73
2021/08/21 02:25:26;;;;;;;3.17;2.00;;;;;;;;;;5095770;28;20032;-73
2021/08/21 02:27:56;;;;;;;4.43;2.40;;;;;;;;;;5096116;28;20020;-73
2021/08/21 02:30:23;;;;;;;3.80;2.05;;;;;;;;;;5095845;28;20024;-73
2021/08/21 02:32:49;;;;;;;3.22;2.35;;;;;;;;;;5095535;28;20020;-73
2021/08/21 02:35:15;;;;;;;4.07;2.47;;;;;;;;;;5095678;28;20047;-73
2021/08/21 02:37:41;;;;;;;4.32;2.30;;;;;;;;;;5095834;28;20383;-73
2021/08/21 02:40:07;;;;;;;5.03;2.35;;;;;;;;;;5095567;28;20510;-73
2021/08/21 02:42:34;;;;;;;4.03;2.20;;;;;;;;;;5096027;28;20467;-73
2021/08/21 02:45:00;;;;;;;3.53;2.53;;;;;;;;;;5095757;28;20103;-73
2021/08/21 02:47:26;;;;;;;4.40;2.70;;;;;;;;;;5096816;28;20024;-73
2021/08/21 02:49:52;;;;;;;4.80;2.80;;;;;;;;;;5095691;28;20024;-73
2021/08/21 02:52:18;;;;;;;4.78;2.92;;;;;;;;;;5095357;28;20549;-73
2021/08/21 02:54:44;;;;;;;4.20;2.60;;;;;;;;;;5095832;28;20024;-73
2021/08/21 02:57:10;;;;;;;5.38;2.67;;;;;;;;;;5095231;28;20024;-73
2021/08/21 02:59:36;;;;;;;3.10;2.45;;;;;;;;;;5095194;28;20028;-73
2021/08/21 03:02:02;;;;;;;6.10;2.78;;;;;;;;;;5095180;28;20024;-73
2021/08/21 03:04:28;;;;;;;5.00;2.38;;;;;;;;;;5095309;28;20039;-73
2021/08/21 03:06:54;;;;;;;5.30;2.25;;;;;;;;;;5095327;28;20087;-73
2021/08/21 03:09:20;;;;;;;5.13;2.45;;;;;;;;;;5095017;28;20027;-73
2021/08/21 03:11:46;;;;;;;3.75;2.30;;;;;;;;;;5095252;28;20031;-73
2021/08/21 03:14:12;;;;;;;4.15;2.65;;;;;;;;;;5095111;28;20024;-73
2021/08/21 03:16:38;;;;;;;6.03;2.38;;;;;;;;;;5094776;28;20031;-73
2021/08/21 03:19:04;;;;;;;4.90;2.92;;;;;;;;;;5094364;28;20067;-73
2021/08/21 03:21:30;;;;;;;5.68;3.28;;;;;;;;;;5095050;28;20016;-73
2021/08/21 03:23:56;;;;;;;9.50;3.15;;;;;;;;;;5076575;28;20036;-73
2021/08/21 03:26:22;;;;;;;4.82;2.92;;;;;;;;;;5094877;28;20025;-73
2021/08/21 03:28:48;;;;;;;7.25;3.40;;;;;;;;;;5094664;28;20074;-73
2021/08/21 03:31:14;;;;;;;4.93;3.15;;;;;;;;;;5094872;28;20020;-73
2021/08/21 03:33:40;;;;;;;4.93;3.45;;;;;;;;;;5094526;28;20452;-73
2021/08/21 03:36:06;;;;;;;6.25;3.30;;;;;;;;;;5094528;28;20028;-73
2021/08/21 03:38:32;;;;;;;5.18;3.08;;;;;;;;;;5094744;28;20032;-73
2021/08/21 03:40:58;;;;;;;4.10;2.58;;;;;;;;;;5094439;28;20055;-73
2021/08/21 03:43:24;;;;;;;4.05;2.40;;;;;;;;;;5094351;28;20035;-73
2021/08/21 03:45:50;;;;;;;4.55;2.60;;;;;;;;;;5094530;28;20024;-73
2021/08/21 03:48:16;;;;;;;4.88;2.80;;;;;;;;;;5094315;28;20036;-73
2021/08/21 03:50:42;;;;;;;5.28;2.70;;;;;;;;;;5094522;28;20023;-73
2021/08/21 03:53:08;;;;;;;5.15;3.05;;;;;;;;;;5094178;28;20454;-73
2021/08/21 03:55:34;;;;;;;6.13;2.60;;;;;;;;;;5094136;28;20103;-73
2021/08/21 03:58:00;;;;;;;4.95;2.55;;;;;;;;;;5094404;28;20480;-73
2021/08/21 04:00:27;;;;;;;4.47;2.45;;;;;;;;;;5094080;28;20020;-73
2021/08/21 04:02:53;;;;;;;5.13;2.25;;;;;;;;;;5075863;28;20024;-73
2021/08/21 04:05:19;;;;;;;3.22;2.40;;;;;;;;;;5094194;28;20024;-73
2021/08/21 04:07:45;;;;;;;4.85;2.53;;;;;;;;;;5094221;28;20107;-73
2021/08/21 04:10:11;;;;;;;3.55;2.30;;;;;;;;;;5093874;28;20457;-73
2021/08/21 04:12:37;;;;;;;7.88;2.55;;;;;;;;;;5093851;28;20028;-73
2021/08/21 04:15:03;;;;;;;5.20;2.40;;;;;;;;;;5093719;28;20438;-73
2021/08/21 04:17:29;;;;;;;4.82;2.88;;;;;;;;;;5075432;28;20481;-73
2021/08/21 04:19:55;;;;;;;7.40;3.88;;;;;;;;;;5094047;28;20099;-73
2021/08/21 04:22:21;;;;;;;6.07;3.25;;;;;;;;;;5094024;28;20063;-73
2021/08/21 04:24:47;;;;;;;9.13;3.78;;;;;;;;;;5093595;28;20445;-73
2021/08/21 04:27:13;;;;;;;7.47;3.90;;;;;;;;;;5092998;28;20028;-73
2021/08/21 04:29:39;;;;;;;7.43;4.10;;;;;;;;;;5075538;28;20017;-73
2021/08/21 04:32:05;;;;;;;8.85;4.20;;;;;;;;;;5093602;28;20034;-73
2021/08/21 04:34:34;;;;;;;7.97;4.03;;;;;;;;;;5075455;28;20020;-73
2021/08/21 04:37:02;;;;;;;7.20;4.18;;;;;;;;;;5094123;28;20077;-73
2021/08/21 04:39:28;;;;;;;6.75;3.65;;;;;;;;;;5093739;28;20035;-73
2021/08/21 04:41:54;;;;;;;8.55;3.92;;;;;;;;;;5093464;28;20460;-73
2021/08/21 04:44:20;;;;;;;6.45;3.40;;;;;;;;;;5093330;28;20054;-73
2021/08/21 04:46:46;;;;;;;5.43;3.28;;;;;;;;;;5093391;28;20056;-73
2021/08/21 04:49:12;;;;;;;7.53;3.20;;;;;;;;;;5093684;28;20031;-73
2021/08/21 04:51:38;;;;;;;6.93;3.10;;;;;;;;;;5093959;28;20024;-73
2021/08/21 04:54:04;;;;;;;8.13;2.90;;;;;;;;;;5093310;28;20032;-73
2021/08/21 04:56:30;;;;;;;4.93;2.70;;;;;;;;;;5093325;28;20034;-73
2021/08/21 04:58:56;;;;;;;7.28;3.00;;;;;;;;;;5075227;28;20020;-73
2021/08/21 05:01:22;;;;;;;6.68;2.97;;;;;;;;;;5093308;28;20141;-73
2021/08/21 05:03:48;;;;;;;5.75;3.10;;;;;;;;;;5093235;28;20111;-73
2021/08/21 05:06:14;;;;;;;5.50;3.30;;;;;;;;;;5075015;28;20428;-73
2021/08/21 05:08:40;;;;;;;6.03;3.50;;;;;;;;;;5093167;28;20110;-73
2021/08/21 05:11:06;;;;;;;6.05;3.50;;;;;;;;;;5093186;28;20027;-73
2021/08/21 05:13:32;;;;;;;7.00;3.40;;;;;;;;;;5093164;28;20464;-73
2021/08/21 05:15:58;;;;;;;6.35;3.47;;;;;;;;;;5093325;28;20027;-73
2021/08/21 05:18:29;;;;;;;5.53;3.17;;;;;;;;;;5092963;28;20052;-73
2021/08/21 05:21:05;;;;;;;5.55;3.20;;;;;;;;;;5093185;28;20046;-73
2021/08/21 05:23:31;;;;;;;6.40;3.65;;;;;;;;;;5093102;28;20095;-73
2021/08/21 05:25:57;;;;;;;5.63;3.55;;;;;;;;;;5093235;28;20028;-73
2021/08/21 05:28:23;;;;;;;5.53;3.70;;;;;;;;;;5074887;28;20077;-73
2021/08/21 05:30:49;;;;;;;6.88;3.97;;;;;;;;;;5093261;28;20024;-73
2021/08/21 05:33:17;;;;;;;6.68;4.07;;;;;;;;;;5092965;28;20475;-73
2021/08/21 05:35:43;;;;;;;6.28;3.67;;;;;;;;;;5074787;28;20028;-73
2021/08/21 05:38:10;;;;;;;6.57;3.50;;;;;;;;;;5095592;28;20056;-73
2021/08/21 05:40:36;;;;;;;5.75;3.70;;;;;;;;;;5096999;28;20047;-73
2021/08/21 05:43:02;;;;;;;5.80;3.72;;;;;;;;;;5096993;28;20032;-73
2021/08/21 05:45:29;;;;;;;7.07;3.95;;;;;;;;;;5096848;28;20162;-73
2021/08/21 05:47:55;;;;;;;7.00;3.83;;;;;;;;;;5096558;28;20025;-73
2021/08/21 05:50:21;;;;;;;6.05;3.90;;;;;;;;;;5096839;28;20024;-73
2021/08/21 05:52:48;;;;;;;4.63;3.10;;;;;;;;;;5096819;28;20027;-73
2021/08/21 05:55:14;;;;;;;7.03;3.38;;;;;;;;;;5097029;28;20103;-73
2021/08/21 05:57:40;;;;;;;6.57;4.70;;;;;;;;;;5096972;28;20050;-73
2021/08/21 06:00:06;;;;;;;6.90;4.53;;;;;;;;;;5078163;28;20558;-73
2021/08/21 06:02:32;;;;;;;6.72;4.20;;;;;;;;;;5096387;28;20024;-73
2021/08/21 06:04:59;;;;;;;6.43;4.22;;;;;;;;;;5096508;28;20099;-73
2021/08/21 06:07:24;;;;;;;6.05;3.45;;;;;;;;;;5096516;28;20020;-73
2021/08/21 06:09:51;;;;;;;5.10;3.00;;;;;;;;;;5096215;28;20502;-73
2021/08/21 06:12:17;;;;;;;5.97;3.38;;;;;;;;;;5096196;28;20084;-73
2021/08/21 06:14:44;;;;;;;6.80;3.50;;;;;;;;;;5096319;28;20489;-73
2021/08/21 06:17:10;;;;;;;5.53;3.90;;;;;;;;;;5077794;28;20051;-73
2021/08/21 06:19:37;;;;;;;8.98;4.55;;;;;;;;;;5096081;28;20027;-73
2021/08/21 06:22:04;;;;;;;5.18;3.60;;;;;;;;;;5095964;28;20032;-73
2021/08/21 06:24:30;;;;;;;4.47;3.30;;;;;;;;;;5096148;28;20468;-73
2021/08/21 06:26:56;;;;;;;6.57;4.10;;;;;;;;;;5104950;28;20074;-74
2021/08/21 06:29:22;;;;;;;6.35;4.15;;;;;;;;;;5108388;28;20016;-73
2021/08/21 06:31:48;;;;;;;7.45;5.20;;;;;;;;;;5107958;28;20059;-74
2021/08/21 06:34:14;;;;;;;7.18;4.10;;;;;;;;;;5096450;28;20464;-73
2021/08/21 06:36:40;;;;;;;7.05;4.63;;;;;;;;;;5096005;28;20494;-73
2021/08/21 06:39:06;;;;;;;10.18;4.90;;;;;;;;;;5095664;28;20020;-73
2021/08/21 06:41:32;;;;;;;6.78;4.15;;;;;;;;;;5095592;28;20067;-73
2021/08/21 06:43:58;;;;;;;8.05;4.40;;;;;;;;;;5095537;28;20048;-73
2021/08/21 06:46:24;;;;;;;7.85;4.70;;;;;;;;;;5095429;28;20028;-73
2021/08/21 06:48:50;;;;;;;7.07;4.93;;;;;;;;;;5094789;28;20093;-73
2021/08/21 06:51:16;;;;;;;10.25;5.32;;;;;;;;;;5095655;28;20049;-73
2021/08/21 06:53:42;;;;;;;6.72;4.47;;;;;;;;;;5095361;28;20494;-73
2021/08/21 06:56:08;;;;;;;7.82;5.22;;;;;;;;;;5095328;28;20032;-73
2021/08/21 06:58:34;;;;;;;7.30;4.70;;;;;;;;;;5077094;28;20372;-73
2021/08/21 07:01:00;;;;;;;7.65;4.72;;;;;;;;;;5095202;28;20028;-73
2021/08/21 07:03:26;;;;;;;10.13;5.40;;;;;;;;;;5095405;28;20046;-73
2021/08/21 07:05:52;;;;;;;8.60;5.18;;;;;;;;;;5095053;28;20028;-73
2021/08/21 07:08:19;;;;;;;8.35;5.35;;;;;;;;;;5095338;28;20101;-73
2021/08/21 07:10:45;;;;;;;9.65;5.68;;;;;;;;;;5094992;28;20020;-73
2021/08/21 07:13:11;;;;;;;8.25;5.68;;;;;;;;;;5095005;28;20016;-73
2021/08/21 07:15:37;;;;;;;7.68;4.97;;;;;;;;;;5095195;28;20028;-73
2021/08/21 07:18:03;;;;;;;9.55;5.50;;;;;;;;;;5094674;28;20131;-73
2021/08/21 07:20:29;;;;;;;8.73;5.72;;;;;;;;;;5094842;28;20059;-73
2021/08/21 07:22:55;;;;;;;8.93;5.50;;;;;;;;;;5076648;28;20024;-73
2021/08/21 07:25:21;;;;;;;9.77;6.30;;;;;;;;;;5094580;28;20043;-73
2021/08/21 07:27:47;;;;;;;11.55;6.80;;;;;;;;;;5094653;28;20024;-73
2021/08/21 07:30:13;;;;;;;10.30;6.30;;;;;;;;;;5094664;28;20062;-73
2021/08/21 07:32:39;;;;;;;10.60;6.93;;;;;;;;;;5094588;28;20020;-73
2021/08/21 07:35:06;;;;;;;9.65;6.63;;;;;;;;;;5094825;28;20073;-73
2021/08/21 07:37:34;;;;;;;9.35;6.57;;;;;;;;;;5094560;28;20157;-73
2021/08/21 07:40:00;;;;;;;12.20;7.22;;;;;;;;;;5076332;28;20027;-73
2021/08/21 07:42:26;;;;;;;10.40;6.72;;;;;;;;;;5094428;28;20024;-73
2021/08/21 07:44:52;;;;;;;11.98;7.25;;;;;;;;;;5094622;28;20098;-73
2021/08/21 07:47:18;;;;;;;10.43;6.88;;;;;;;;;;5094320;28;20025;-73
2021/08/21 07:49:45;;;;;;;10.23;6.95;;;;;;;;;;5094550;28;20028;-73
2021/08/21 07:52:11;;;;;;;11.30;6.93;;;;;;;;;;5094230;28;20017;-73
2021/08/21 07:54:37;;;;;;;11.38;7.35;;;;;;;;;;5094213;28;20038;-73
2021/08/21 07:57:03;;;;;;;10.23;6.82;;;;;;;;;;5094134;28;20023;-73
2021/08/21 07:59:29;;;;;;;12.63;8.23;;;;;;;;;;5094369;28;20085;-73
2021/08/21 08:01:55;;;;;;;11.02;7.13;;;;;;;;;;5093090;28;20111;-73
2021/08/21 08:04:21;;;;;;;12.15;8.07;;;;;;;;;;5094229;28;20133;-73
2021/08/21 08:06:47;;;;;;;11.45;6.50;;;;;;;;;;5094015;28;20073;-73
2021/08/21 08:09:13;;;;;;;11.45;7.05;;;;;;;;;;5093957;28;20028;-73
2021/08/21 08:11:39;;;;;;;9.68;6.60;;;;;;;;;;5093905;28;20103;-73
2021/08/21 08:14:05;;;;;;;10.65;6.93;;;;;;;;;;5094142;28;20055;-73
2021/08/21 08:16:31;;;;;;;9.85;6.68;;;;;;;;;;5093848;28;20024;-73
2021/08/21 08:18:57;;;;;;;8.32;6.05;;;;;;;;;;5093557;28;20137;-73
2021/08/21 08:21:23;;;;;;;8.18;5.60;;;;;;;;;;5093761;28;20028;-73
2021/08/21 08:23:49;;;;;;;9.38;6.32;;;;;;;;;;5093708;28;20028;-73
2021/08/21 08:26:15;;;;;;;8.90;6.25;;;;;;;;;;5093853;28;20111;-73
2021/08/21 08:28:41;;;;;;;8.77;6.25;;;;;;;;;;5093674;28;20055;-73
2021/08/21 08:31:07;;;;;;;8.35;5.68;;;;;;;;;;5093568;28;20024;-73
2021/08/21 08:33:34;;;;;;;7.57;5.00;;;;;;;;;;5093389;28;20039;-73
2021/08/21 08:36:00;;;;;;;7.80;4.88;;;;;;;;;;5093533;28;20024;-73
2021/08/21 08:38:26;;;;;;;7.70;4.53;;;;;;;;;;5093461;28;20472;-73
2021/08/21 08:40:53;;;;;;;6.85;4.40;;;;;;;;;;5093529;28;20020;-73
2021/08/21 08:43:22;;;;;;;6.07;4.18;;;;;;;;;;5093966;28;20437;-73
2021/08/21 08:45:49;;;;;;;6.43;3.88;;;;;;;;;;5093423;28;20107;-73
2021/08/21 08:48:15;;;;;;;5.57;3.70;;;;;;;;;;5093431;28;20074;-73
2021/08/21 08:50:45;;;;;;;6.30;3.80;;;;;;;;;;5093434;28;20020;-73
2021/08/21 08:53:11;;;;;;;6.57;3.78;;;;;;;;;;5093354;28;20388;-73
2021/08/21 08:55:37;;;;;;;5.63;3.80;;;;;;;;;;5093318;28;20124;-73
2021/08/21 08:58:04;;;;;;;5.88;3.88;;;;;;;;;;5093314;28;20509;-73
2021/08/21 09:00:30;;;;;;;6.00;4.13;;;;;;;;;;5093855;28;20048;-73
2021/08/21 09:02:57;;;;;;;6.78;3.80;;;;;;;;;;5093519;28;20551;-73
2021/08/21 09:05:25;;;;;;;5.97;3.83;;;;;;;;;;5093143;28;20043;-73
2021/08/21 09:07:52;;;;;;;6.65;4.45;;;;;;;;;;5093262;28;20433;-73
2021/08/21 09:10:18;;;;;;;6.50;3.53;;;;;;;;;;5093213;28;20023;-73
2021/08/21 09:12:45;;;;;;;7.30;3.35;;;;;;;;;;5095309;28;20024;-73
2021/08/21 09:15:20;;;;;;;7.38;4.00;;;;;;;;;;5097219;28;20426;-73
2021/08/21 09:18:07;;;;;;;6.50;3.88;;;;;;;;;;5097014;28;20048;-73
2021/08/21 09:20:53;;;;;;;6.07;4.10;;;;;;;;;;5079032;28;20085;-73
2021/08/21 09:23:19;;;;;;;5.63;3.78;;;;;;;;;;5079814;28;20039;-73
2021/08/21 09:25:45;;;;;;;4.97;3.45;;;;;;;;;;5097005;28;20034;-73
2021/08/21 09:28:19;;;;;;;7.28;4.10;;;;;;;;;;5097318;28;20514;-73
2021/08/21 09:30:45;;;;;;;6.57;4.35;;;;;;;;;;5097320;28;20536;-73
2021/08/21 09:33:11;;;;;;;8.05;4.30;;;;;;;;;;5096921;28;20028;-73
2021/08/21 09:35:37;;;;;;;6.97;4.20;;;;;;;;;;5096888;28;20589;-73
2021/08/21 09:38:03;;;;;;;6.55;3.90;;;;;;;;;;5097127;28;20032;-73
2021/08/21 09:40:37;;;;;;;6.50;4.03;;;;;;;;;;5097332;28;20470;-73
2021/08/21 09:43:04;;;;;;;7.28;4.28;;;;;;;;;;5097309;28;20028;-73
2021/08/21 09:45:35;;;;;;;6.32;4.15;;;;;;;;;;5096912;28;20484;-73
2021/08/21 09:48:01;;;;;;;6.82;4.35;;;;;;;;;;5097023;28;20360;-73
2021/08/21 09:50:31;;;;;;;6.93;3.67;;;;;;;;;;5096514;28;20055;-73
2021/08/21 09:53:01;;;;;;;5.70;4.03;;;;;;;;;;5096494;28;20023;-73
2021/08/21 09:55:29;;;;;;;5.95;4.10;;;;;;;;;;5096541;28;20059;-73
2021/08/21 09:58:05;;;;;;;6.25;3.88;;;;;;;;;;5096472;28;20043;-73
2021/08/21 10:00:32;;;;;;;6.15;4.10;;;;;;;;;;5096482;28;20031;-73
2021/08/21 10:02:59;;;;;;;6.65;4.32;;;;;;;;;;5078901;28;20081;-73
2021/08/21 10:05:26;;;;;;;6.45;4.40;;;;;;;;;;5096302;28;20027;-73
2021/08/21 10:07:59;;;;;;;6.38;4.22;;;;;;;;;;5096330;28;20024;-73
2021/08/21 10:10:28;;;;;;;8.02;4.82;;;;;;;;;;5096282;28;20026;-73
2021/08/21 10:12:58;;;;;;;5.28;3.75;;;;;;;;;;5096477;28;20012;-73
2021/08/21 10:15:24;;;;;;;6.32;3.70;;;;;;;;;;5096074;28;20052;-73
2021/08/21 10:17:50;;;;;;;5.32;3.63;;;;;;;;;;5095927;28;20040;-73
2021/08/21 10:20:17;;;;;;;6.32;3.78;;;;;;;;;;5077834;28;20403;-73
2021/08/21 10:22:43;;;;;;;6.03;4.07;;;;;;;;;;5096527;28;20430;-73
2021/08/21 10:25:10;;;;;;;8.07;5.18;;;;;;;;;;5095097;28;20035;-73
2021/08/21 10:27:37;;;;;;;6.57;4.72;;;;;;;;;;5096200;28;20024;-73
2021/08/21 10:30:03;;;;;;;8.30;5.40;;;;;;;;;;5095854;28;20024;-73
2021/08/21 10:32:36;;;;;;;7.85;5.07;;;;;;;;;;5095848;28;20021;-73
2021/08/21 10:35:04;;;;;;;10.43;6.65;;;;;;;;;;5096096;28;20106;-73
2021/08/21 10:37:33;;;;;;;11.68;8.10;;;;;;;;;;5096270;28;20027;-73
2021/08/21 10:39:59;;;;;;;10.73;7.43;;;;;;;;;;5095886;28;20109;-73
2021/08/21 10:42:34;;;;;;;9.73;7.10;;;;;;;;;;5095898;28;20028;-73
2021/08/21 10:45:00;;;;;;;8.55;6.10;;;;;;;;;;5096110;28;20024;-73
2021/08/21 10:47:33;;;;;;;8.95;5.45;;;;;;;;;;5095750;28;20105;-73
2021/08/21 10:50:22;;;;;;;8.00;5.20;;;;;;;;;;5095535;28;20103;-73
2021/08/21 10:52:54;;;;;;;7.78;4.53;;;;;;;;;;5095879;28;20027;-73
2021/08/21 10:55:20;;;;;;;6.30;4.43;;;;;;;;;;5095438;28;20063;-74
2021/08/21 10:58:04;;;;;;;8.40;5.15;;;;;;;;;;5095595;28;20028;-73
2021/08/21 11:00:39;;;;;;;7.88;4.63;;;;;;;;;;5095495;28;20034;-73
2021/08/21 11:03:09;;;;;;;7.68;4.28;;;;;;;;;;5095260;28;20035;-73
2021/08/21 11:05:54;;;;;;;5.90;4.53;;;;;;;;;;5095149;28;20035;-73
2021/08/21 11:08:21;;;;;;;8.00;4.57;;;;;;;;;;5095128;28;20016;-73
2021/08/21 11:10:47;;;;;;;8.60;4.50;;;;;;;;;;5095022;28;20535;-74
2021/08/21 11:13:32;;;;;;;6.03;4.35;;;;;;;;;;5094947;28;20028;-73
2021/08/21 11:16:03;;;;;;;7.15;4.18;;;;;;;;;;5094813;28;20028;-74
2021/08/21 11:18:29;;;;;;;5.65;3.75;;;;;;;;;;5094734;28;20047;-73
2021/08/21 11:20:55;;;;;;;6.68;4.13;;;;;;;;;;5095138;28;20032;-73
2021/08/21 11:23:21;;;;;;;6.90;4.35;;;;;;;;;;5094809;28;20079;-73
2021/08/21 11:25:47;;;;;;;6.22;4.30;;;;;;;;;;5094706;28;20111;-74
2021/08/21 11:28:24;;;;;;;5.85;3.58;;;;;;;;;;5094750;28;20480;-73
2021/08/21 11:31:09;;;;;;;6.68;4.35;;;;;;;;;;5094932;28;20464;-74
2021/08/21 11:33:37;;;;;;;5.90;3.60;;;;;;;;;;5095271;28;20098;-73
2021/08/21 11:36:03;;;;;;;6.75;3.75;;;;;;;;;;5094775;28;20038;-74
2021/08/21 11:38:33;;;;;;;6.40;4.03;;;;;;;;;;5094565;28;20073;-74
2021/08/21 11:41:01;;;;;;;5.57;3.55;;;;;;;;;;5076316;28;20100;-74
2021/08/21 11:43:29;;;;;;;5.53;3.50;;;;;;;;;;5094424;28;20453;-73
2021/08/21 11:45:55;;;;;;;6.60;3.88;;;;;;;;;;5094264;28;20035;-74
2021/08/21 11:48:28;;;;;;;5.63;3.65;;;;;;;;;;5094627;28;20016;-74
2021/08/21 11:50:55;;;;;;;4.40;3.00;;;;;;;;;;5094301;28;20016;-73
2021/08/21 11:53:28;;;;;;;6.88;3.67;;;;;;;;;;5094273;28;20027;-73
2021/08/21 11:55:55;;;;;;;5.75;3.50;;;;;;;;;;5094509;28;20032;-74
2021/08/21 11:58:30;;;;;;;4.85;3.25;;;;;;;;;;5094456;28;20036;-73
2021/08/21 12:01:02;;;;;;;5.45;3.05;;;;;;;;;;5094671;28;20060;-73
2021/08/21 12:06:10;;;;;;;4.70;3.40;;;;;;;;;;5093989;28;20031;-74
2021/08/21 12:08:36;;;;;;;4.28;3.15;;;;;;;;;;5094270;28;20020;-73
2021/08/21 12:11:03;;;;;;;5.50;3.28;;;;;;;;;;5093959;28;20043;-74
2021/08/21 12:13:31;;;;;;;4.15;2.88;;;;;;;;;;5093927;28;20027;-73
2021/08/21 12:16:08;;;;;;;6.68;3.58;;;;;;;;;;5093820;28;20103;-73
2021/08/21 12:18:34;;;;;;;6.10;4.00;;;;;;;;;;5093847;28;20496;-73
2021/08/21 12:21:01;;;;;;;6.35;3.97;;;;;;;;;;5093773;28;20095;-73
2021/08/21 12:23:27;;;;;;;5.57;3.60;;;;;;;;;;5094021;28;20048;-74
2021/08/21 12:25:54;;;;;;;6.82;4.30;;;;;;;;;;5075471;28;20055;-74
2021/08/21 12:28:22;;;;;;;7.28;4.25;;;;;;;;;;5093659;28;20020;-73
2021/08/21 12:31:17;;;;;;;6.32;3.78;;;;;;;;;;5094178;28;20081;-73
2021/08/21 12:33:44;;;;;;;7.30;4.63;;;;;;;;;;5072418;28;20430;-73
2021/08/21 12:36:21;;;;;;;8.98;4.43;;;;;;;;;;5093524;28;20028;-73
2021/08/21 12:39:05;;;;;;;5.60;4.32;;;;;;;;;;5093511;28;20455;-73
2021/08/21 12:41:33;;;;;;;7.50;4.60;;;;;;;;;;5094000;28;20376;-73
2021/08/21 12:44:16;;;;;;;7.95;4.95;;;;;;;;;;5093468;28;20500;-73
2021/08/21 12:46:52;;;;;;;8.15;4.82;;;;;;;;;;5093343;28;20078;-73
2021/08/21 12:49:28;;;;;;;7.63;4.32;;;;;;;;;;5093758;28;20012;-73
2021/08/21 12:51:55;;;;;;;6.40;4.38;;;;;;;;;;5093366;28;20035;-73
2021/08/21 12:54:26;;;;;;;6.95;4.72;;;;;;;;;;5093393;28;20387;-73
2021/08/21 12:57:08;;;;;;;8.70;4.90;;;;;;;;;;5093315;28;20023;-74
2021/08/21 12:59:34;;;;;;;8.43;4.93;;;;;;;;;;5093539;28;20024;-74
2021/08/21 13:02:07;;;;;;;7.47;5.07;;;;;;;;;;5093264;28;20030;-73
2021/08/21 13:04:33;;;;;;;7.68;5.00;;;;;;;;;;5075128;28;20020;-73
2021/08/21 13:07:00;;;;;;;7.50;4.88;;;;;;;;;;5093334;28;20031;-74
2021/08/21 13:09:26;;;;;;;7.30;4.65;;;;;;;;;;5075012;28;20462;-74
2021/08/21 13:11:52;;;;;;;9.10;4.88;;;;;;;;;;5093131;28;20103;-73
2021/08/21 13:14:18;;;;;;;6.88;4.20;;;;;;;;;;5093409;28;20020;-74
2021/08/21 13:16:44;;;;;;;5.85;3.80;;;;;;;;;;5093079;28;20032;-74
2021/08/21 13:19:10;;;;;;;6.45;4.00;;;;;;;;;;5092687;28;20044;-73
2021/08/21 13:21:36;;;;;;;5.07;3.50;;;;;;;;;;5093353;28;20028;-73
2021/08/21 13:24:02;;;;;;;5.55;3.60;;;;;;;;;;5093319;28;20368;-74
2021/08/21 13:26:29;;;;;;;4.32;3.30;;;;;;;;;;5092932;28;20028;-74
2021/08/21 13:28:55;;;;;;;5.18;3.20;;;;;;;;;;5093587;28;20013;-74
2021/08/21 13:31:21;;;;;;;5.68;3.35;;;;;;;;;;5093036;28;20028;-73
2021/08/21 13:33:47;;;;;;;4.20;2.80;;;;;;;;;;5093245;28;20031;-74
2021/08/21 13:36:13;;;;;;;4.35;2.97;;;;;;;;;;5093221;28;20388;-74
2021/08/21 13:38:39;;;;;;;3.75;2.70;;;;;;;;;;5074883;28;20028;-73
2021/08/21 13:41:05;;;;;;;3.95;2.55;;;;;;;;;;5092851;28;20024;-74
2021/08/21 13:43:31;;;;;;;3.13;2.15;;;;;;;;;;5092911;28;20031;-74
2021/08/21 13:45:57;;;;;;;3.63;2.17;;;;;;;;;;5092769;28;20476;-74
2021/08/21 13:48:23;;;;;;;3.00;1.90;;;;;;;;;;5092870;28;20024;-74
2021/08/21 13:50:49;;;;;;;2.35;1.52;;;;;;;;;;5092865;28;20031;-74
2021/08/21 13:53:15;;;;;;;2.83;1.50;;;;;;;;;;5092838;28;20099;-74
2021/08/21 13:55:41;;;;;;;1.98;1.40;;;;;;;;;;5092796;28;20032;-73
2021/08/21 13:58:07;;;;;;;1.10;1.00;;;;;;;;;;5094308;28;20024;-74
2021/08/21 14:00:33;;;;;;;1.10;1.00;;;;;;;;;;5096732;28;20099;-74
2021/08/21 14:02:59;;;;;;;0.95;0.85;;;;;;;;;;5096463;28;20055;-74
2021/08/21 14:05:25;;;;;;;1.30;1.20;;;;;;;;;;5096596;28;20031;-74
2021/08/21 14:07:52;;;;;;;1.58;1.20;;;;;;;;;;5096326;28;20043;-74
2021/08/21 14:10:18;;;;;;;1.73;1.30;;;;;;;;;;5096581;28;20020;-73
2021/08/21 14:12:44;;;;;;;1.73;1.17;;;;;;;;;;5096170;28;20108;-74
2021/08/21 14:15:11;;;;;;;2.65;1.20;;;;;;;;;;5096078;28;20485;-74
2021/08/21 14:17:37;;;;;;;2.55;1.20;;;;;;;;;;5095837;28;20052;-74
2021/08/21 14:20:03;;;;;;;2.67;1.35;;;;;;;;;;5077541;28;20449;-73
2021/08/21 14:22:30;;;;;;;1.60;1.50;;;;;;;;;;5095982;28;20028;-74
2021/08/21 14:24:56;;;;;;;1.55;1.17;;;;;;;;;;5096416;28;20063;-73
2021/08/21 14:27:22;;;;;;;1.05;0.95;;;;;;;;;;5095771;28;20021;-74
2021/08/21 14:29:48;;;;;;;1.17;0.80;;;;;;;;;;5095838;28;20047;-74
2021/08/21 14:32:14;;;;;;;1.05;1.05;;;;;;;;;;5095848;28;20472;-74
2021/08/21 14:34:40;;;;;;;1.02;0.93;;;;;;;;;;5095601;28;20024;-74
2021/08/21 14:37:06;;;;;;;0.98;0.90;;;;;;;;;;5095769;28;20028;-73
2021/08/21 14:39:32;;;;;;;1.38;1.00;;;;;;;;;;5095721;28;20097;-74
2021/08/21 14:41:58;;;;;;;0.68;0.68;;;;;;;;;;5095706;28;20480;-74
2021/08/21 14:44:24;;;;;;;1.13;0.90;;;;;;;;;;5095630;28;20030;-74
2021/08/21 14:46:50;;;;;;;0.80;0.80;;;;;;;;;;5095544;28;20028;-73